Time;durP1;ratioP1;P1;durP2;ratioP2;P2;SDS_P1;SDS_P2;PMS_P1;PMS_P2;Temp;Humidity;BMP_temperature;BMP_pressure;BME280_temperature;BME280_humidity;BME280_pressure;Samples;Min_cycle;Max_cycle;Signal;HPM_P1;HPM_P2
2023/02/26 00:02:23;;;;;;;43.97;8.45;;;;;;;;;;5042427;28;20049;-49
2023/02/26 00:04:50;;;;;;;53.85;10.48;;;;;;;;;;5040153;28;20072;-48
2023/02/26 00:07:17;;;;;;;55.65;9.45;;;;;;;;;;5041222;28;20111;-49
2023/02/26 00:09:43;;;;;;;54.95;9.23;;;;;;;;;;5042542;28;20124;-46
2023/02/26 00:12:11;;;;;;;51.80;10.48;;;;;;;;;;5041067;28;20410;-52
2023/02/26 00:14:38;;;;;;;58.13;10.88;;;;;;;;;;5037971;28;20040;-49
2023/02/26 00:17:29;;;;;;;59.80;10.70;;;;;;;;;;5036176;28;20051;-44
2023/02/26 00:19:57;;;;;;;65.18;11.13;;;;;;;;;;5041890;28;20476;-45
2023/02/26 00:22:24;;;;;;;87.35;12.93;;;;;;;;;;5014941;28;20087;-48
2023/02/26 00:24:51;;;;;;;84.03;10.77;;;;;;;;;;5031826;28;20036;-44
2023/02/26 00:27:18;;;;;;;81.95;11.18;;;;;;;;;;5031839;28;20021;-44
2023/02/26 00:29:45;;;;;;;62.80;9.50;;;;;;;;;;5033098;28;20116;-47
2023/02/26 00:32:12;;;;;;;90.85;11.90;;;;;;;;;;5048687;28;20027;-48
2023/02/26 00:34:40;;;;;;;99.55;13.85;;;;;;;;;;5050387;28;20025;-45
2023/02/26 00:37:06;;;;;;;126.70;17.52;;;;;;;;;;5039714;28;20056;-46
2023/02/26 00:39:56;;;;;;;94.57;12.85;;;;;;;;;;5034545;28;20519;-47
2023/02/26 00:42:23;;;;;;;80.75;9.90;;;;;;;;;;5033250;28;20037;-45
2023/02/26 00:44:50;;;;;;;58.97;9.68;;;;;;;;;;5038521;28;20123;-42
2023/02/26 00:47:25;;;;;;;57.38;9.43;;;;;;;;;;5038457;28;20032;-45
2023/02/26 00:49:58;;;;;;;53.05;9.27;;;;;;;;;;5041049;28;20471;-43
2023/02/26 00:52:43;;;;;;;63.88;9.07;;;;;;;;;;5037307;28;20035;-43
2023/02/26 00:55:11;;;;;;;55.40;7.95;;;;;;;;;;5039905;28;20026;-46
2023/02/26 00:57:38;;;;;;;49.35;9.50;;;;;;;;;;5036244;28;20029;-44
2023/02/26 01:00:06;;;;;;;66.05;10.13;;;;;;;;;;5040652;28;20037;-46
2023/02/26 01:02:35;;;;;;;95.40;13.35;;;;;;;;;;5040854;28;20124;-43
2023/02/26 01:05:03;;;;;;;78.35;11.20;;;;;;;;;;5038700;28;20521;-44
2023/02/26 01:07:32;;;;;;;83.18;12.50;;;;;;;;;;5040973;28;20088;-45
2023/02/26 01:09:59;;;;;;;51.85;10.27;;;;;;;;;;5039406;28;20156;-45
2023/02/26 01:12:26;;;;;;;59.17;10.05;;;;;;;;;;5039895;28;20029;-46
2023/02/26 01:14:53;;;;;;;76.45;12.50;;;;;;;;;;5041412;28;20039;-47
2023/02/26 01:17:28;;;;;;;104.57;13.65;;;;;;;;;;5033443;28;20036;-44
2023/02/26 01:19:58;;;;;;;96.28;12.93;;;;;;;;;;5040327;28;20119;-46
2023/02/26 01:22:30;;;;;;;90.53;12.82;;;;;;;;;;5044134;28;20521;-48
2023/02/26 01:25:03;;;;;;;60.88;9.43;;;;;;;;;;5050638;28;20056;-46
2023/02/26 01:27:30;;;;;;;37.47;6.93;;;;;;;;;;5050637;28;20017;-45
2023/02/26 01:29:57;;;;;;;44.97;6.40;;;;;;;;;;5050800;28;20025;-45
2023/02/26 01:32:27;;;;;;;61.55;6.45;;;;;;;;;;5031412;28;20037;-46
2023/02/26 01:35:05;;;;;;;46.60;6.35;;;;;;;;;;5030534;28;20506;-48
2023/02/26 01:37:52;;;;;;;58.22;6.82;;;;;;;;;;5030532;28;20033;-45
2023/02/26 01:40:25;;;;;;;39.75;6.70;;;;;;;;;;5013899;28;20034;-45
2023/02/26 01:42:53;;;;;;;84.47;10.35;;;;;;;;;;5029950;28;20025;-44
2023/02/26 01:45:29;;;;;;;76.15;9.45;;;;;;;;;;5030542;28;20033;-44
2023/02/26 01:48:14;;;;;;;64.45;7.95;;;;;;;;;;5030727;28;20021;-45
2023/02/26 01:50:41;;;;;;;41.85;6.03;;;;;;;;;;5030433;28;20031;-45
2023/02/26 01:53:08;;;;;;;43.40;7.15;;;;;;;;;;5030120;28;20025;-45
2023/02/26 01:55:35;;;;;;;30.95;5.25;;;;;;;;;;5030377;28;20056;-44
2023/02/26 01:58:03;;;;;;;34.22;4.90;;;;;;;;;;5033593;28;20035;-44
2023/02/26 02:00:30;;;;;;;31.85;5.13;;;;;;;;;;5048926;28;20108;-46
2023/02/26 02:02:57;;;;;;;49.60;6.95;;;;;;;;;;5023342;28;20040;-46
2023/02/26 02:05:28;;;;;;;59.50;7.28;;;;;;;;;;5039552;28;20076;-47
2023/02/26 02:07:55;;;;;;;42.83;5.55;;;;;;;;;;5040548;28;20566;-46
2023/02/26 02:10:23;;;;;;;30.77;5.22;;;;;;;;;;5039138;28;20073;-44
2023/02/26 02:12:53;;;;;;;36.15;4.07;;;;;;;;;;5041312;28;20025;-47
2023/02/26 02:15:20;;;;;;;18.50;3.53;;;;;;;;;;5038826;28;20511;-45
2023/02/26 02:17:51;;;;;;;30.25;3.40;;;;;;;;;;5039339;28;20037;-49
2023/02/26 02:20:21;;;;;;;22.70;2.77;;;;;;;;;;5035358;28;20033;-44
2023/02/26 02:22:51;;;;;;;58.42;8.05;;;;;;;;;;5039773;28;20028;-48
2023/02/26 02:25:27;;;;;;;60.28;6.45;;;;;;;;;;5020231;28;20049;-48
2023/02/26 02:28:07;;;;;;;39.25;4.13;;;;;;;;;;5040965;28;20478;-45
2023/02/26 02:30:52;;;;;;;28.40;4.07;;;;;;;;;;5035855;28;20036;-47
2023/02/26 02:33:24;;;;;;;19.83;3.58;;;;;;;;;;5016729;28;20048;-45
2023/02/26 02:35:54;;;;;;;29.75;3.42;;;;;;;;;;5038174;28;20121;-47
2023/02/26 02:38:31;;;;;;;26.52;3.42;;;;;;;;;;5021517;28;20368;-44
2023/02/26 02:41:03;;;;;;;29.05;5.13;;;;;;;;;;5037938;28;20034;-45
2023/02/26 02:43:32;;;;;;;59.65;7.05;;;;;;;;;;5030148;28;20048;-45
2023/02/26 02:46:12;;;;;;;39.90;4.97;;;;;;;;;;5012163;28;20033;-43
2023/02/26 02:48:45;;;;;;;42.35;4.88;;;;;;;;;;5030081;28;20026;-45
2023/02/26 02:51:16;;;;;;;28.40;4.50;;;;;;;;;;5032629;28;20409;-44
2023/02/26 02:53:45;;;;;;;27.52;4.03;;;;;;;;;;5033568;28;20068;-44
2023/02/26 02:56:48;;;;;;;29.58;4.63;;;;;;;;;;5033255;28;20774;-43
2023/02/26 02:59:18;;;;;;;26.17;4.78;;;;;;;;;;4934177;29;20118;-44
2023/02/26 03:01:46;;;;;;;46.45;7.32;;;;;;;;;;5016216;28;20029;-44
2023/02/26 03:04:15;;;;;;;30.00;4.85;;;;;;;;;;5033419;28;20027;-44
2023/02/26 03:06:42;;;;;;;31.35;4.80;;;;;;;;;;5033201;28;20022;-44
2023/02/26 03:09:10;;;;;;;26.35;4.07;;;;;;;;;;5033493;28;20049;-46
2023/02/26 03:11:37;;;;;;;23.48;4.40;;;;;;;;;;5033046;28;20116;-43
2023/02/26 03:14:05;;;;;;;28.02;4.32;;;;;;;;;;5033267;28;20372;-46
2023/02/26 03:16:44;;;;;;;51.53;5.40;;;;;;;;;;5032999;28;20506;-43
2023/02/26 03:19:34;;;;;;;60.85;7.70;;;;;;;;;;5032884;28;20029;-43
2023/02/26 03:22:13;;;;;;;41.95;5.93;;;;;;;;;;5020913;28;20113;-45
2023/02/26 03:24:47;;;;;;;53.28;6.22;;;;;;;;;;5033014;28;20080;-45
2023/02/26 03:27:23;;;;;;;37.05;5.55;;;;;;;;;;5032946;28;20072;-43
2023/02/26 03:29:53;;;;;;;31.00;5.05;;;;;;;;;;5033011;28;20036;-45
2023/02/26 03:32:26;;;;;;;47.40;5.65;;;;;;;;;;5032831;28;20030;-48
2023/02/26 03:34:56;;;;;;;36.58;5.75;;;;;;;;;;5032952;28;20041;-45
2023/02/26 03:37:30;;;;;;;38.55;6.45;;;;;;;;;;5032702;28;20030;-44
2023/02/26 03:39:59;;;;;;;43.92;6.95;;;;;;;;;;5032804;28;20025;-44
2023/02/26 03:42:44;;;;;;;33.63;6.00;;;;;;;;;;5032747;28;20029;-47
2023/02/26 03:45:15;;;;;;;55.13;8.40;;;;;;;;;;5032516;28;20112;-43
2023/02/26 03:47:45;;;;;;;51.27;8.77;;;;;;;;;;5032728;28;20026;-43
2023/02/26 03:50:18;;;;;;;56.03;8.85;;;;;;;;;;5038467;28;20626;-44
2023/02/26 03:52:47;;;;;;;50.97;10.05;;;;;;;;;;5040985;28;20438;-44
2023/02/26 03:55:14;;;;;;;43.00;8.77;;;;;;;;;;5034875;28;20014;-44
2023/02/26 03:57:41;;;;;;;54.63;9.85;;;;;;;;;;5043982;28;20024;-45
2023/02/26 04:00:09;;;;;;;76.30;11.15;;;;;;;;;;5047392;28;20040;-45
2023/02/26 04:02:44;;;;;;;49.83;9.90;;;;;;;;;;5028998;28;20087;-42
2023/02/26 04:05:14;;;;;;;54.50;10.50;;;;;;;;;;5037079;28;20495;-45
2023/02/26 04:07:41;;;;;;;67.85;11.00;;;;;;;;;;5041780;28;20086;-43
2023/02/26 04:10:10;;;;;;;70.97;11.68;;;;;;;;;;5040621;28;20053;-44
2023/02/26 04:12:37;;;;;;;52.63;10.60;;;;;;;;;;5046785;28;20649;-42
2023/02/26 04:15:04;;;;;;;44.97;8.60;;;;;;;;;;5046901;28;20491;-44
2023/02/26 04:17:31;;;;;;;51.45;8.48;;;;;;;;;;5018687;28;20471;-43
2023/02/26 04:19:58;;;;;;;31.77;7.22;;;;;;;;;;5045055;28;20031;-46
2023/02/26 04:22:25;;;;;;;40.78;7.35;;;;;;;;;;5038874;28;20475;-44
2023/02/26 04:24:52;;;;;;;37.50;5.90;;;;;;;;;;5040037;28;20068;-42
2023/02/26 04:27:19;;;;;;;33.42;5.82;;;;;;;;;;5024708;28;20030;-44
2023/02/26 04:29:46;;;;;;;23.88;4.97;;;;;;;;;;5042663;28;20149;-46
2023/02/26 04:32:13;;;;;;;24.20;4.45;;;;;;;;;;5040785;28;20036;-48
2023/02/26 04:34:40;;;;;;;21.55;3.70;;;;;;;;;;5040527;28;20060;-45
2023/02/26 04:37:07;;;;;;;32.47;3.97;;;;;;;;;;5039719;28;20064;-46
2023/02/26 04:39:35;;;;;;;29.25;4.45;;;;;;;;;;5023690;28;20037;-45
2023/02/26 04:42:03;;;;;;;27.05;4.10;;;;;;;;;;5040325;28;20579;-48
2023/02/26 04:44:41;;;;;;;24.23;3.97;;;;;;;;;;5039906;28;20037;-48
2023/02/26 04:47:10;;;;;;;23.83;3.15;;;;;;;;;;5024447;28;20500;-45
2023/02/26 04:49:37;;;;;;;15.15;2.75;;;;;;;;;;5038249;28;20785;-45
2023/02/26 04:52:04;;;;;;;56.03;6.25;;;;;;;;;;5031510;28;20034;-45
2023/02/26 04:54:31;;;;;;;20.90;2.90;;;;;;;;;;5031306;28;20103;-47
2023/02/26 04:56:58;;;;;;;33.58;3.95;;;;;;;;;;5031101;28;20727;-44
2023/02/26 04:59:25;;;;;;;22.50;3.38;;;;;;;;;;5022095;28;20045;-45
2023/02/26 05:01:52;;;;;;;42.80;5.50;;;;;;;;;;5011535;28;20045;-44
2023/02/26 05:04:20;;;;;;;26.27;3.55;;;;;;;;;;5011590;28;20102;-46
2023/02/26 05:06:47;;;;;;;37.08;4.82;;;;;;;;;;5011569;28;20407;-46
2023/02/26 05:09:13;;;;;;;67.28;8.07;;;;;;;;;;5011548;28;20080;-45
2023/02/26 05:11:40;;;;;;;31.50;4.35;;;;;;;;;;5011426;28;20061;-48
2023/02/26 05:14:08;;;;;;;39.83;5.00;;;;;;;;;;5010777;28;20487;-47
2023/02/26 05:16:35;;;;;;;38.35;4.85;;;;;;;;;;5011438;28;20051;-48
2023/02/26 05:19:02;;;;;;;37.95;4.93;;;;;;;;;;5011356;28;20105;-48
2023/02/26 05:21:29;;;;;;;21.73;3.30;;;;;;;;;;5011436;28;20451;-50
2023/02/26 05:23:56;;;;;;;38.10;4.70;;;;;;;;;;4993583;28;20405;-45
2023/02/26 05:26:23;;;;;;;18.65;3.35;;;;;;;;;;5011296;28;20523;-45
2023/02/26 05:28:50;;;;;;;22.63;3.58;;;;;;;;;;5011257;28;20057;-46
2023/02/26 05:31:17;;;;;;;23.98;3.72;;;;;;;;;;5011201;28;20041;-47
2023/02/26 05:33:44;;;;;;;22.67;3.58;;;;;;;;;;5011376;28;20022;-46
2023/02/26 05:36:11;;;;;;;93.97;8.90;;;;;;;;;;5011185;28;20041;-49
2023/02/26 05:38:38;;;;;;;26.95;3.47;;;;;;;;;;5011144;28;20515;-46
2023/02/26 05:41:05;;;;;;;27.73;3.92;;;;;;;;;;5011220;28;20034;-47
2023/02/26 05:43:32;;;;;;;30.10;3.10;;;;;;;;;;5011156;28;20026;-47
2023/02/26 05:45:59;;;;;;;16.73;3.13;;;;;;;;;;5011029;28;20038;-46
2023/02/26 05:48:27;;;;;;;26.75;3.15;;;;;;;;;;5011071;28;20030;-46
2023/02/26 05:50:54;;;;;;;20.73;2.63;;;;;;;;;;5011034;28;20500;-45
2023/02/26 05:53:21;;;;;;;29.55;3.13;;;;;;;;;;5011120;28;20445;-44
2023/02/26 05:55:49;;;;;;;13.68;2.50;;;;;;;;;;5010948;28;20036;-45
2023/02/26 05:58:16;;;;;;;17.05;3.00;;;;;;;;;;5010927;28;20112;-46
2023/02/26 06:00:43;;;;;;;26.60;3.10;;;;;;;;;;5010933;28;20025;-44
2023/02/26 06:03:10;;;;;;;23.77;4.00;;;;;;;;;;5009440;28;20026;-44
2023/02/26 06:05:37;;;;;;;29.10;4.07;;;;;;;;;;5010626;28;20037;-44
2023/02/26 06:08:05;;;;;;;29.10;3.45;;;;;;;;;;5010969;28;20037;-45
2023/02/26 06:10:32;;;;;;;37.67;5.00;;;;;;;;;;5010679;28;20050;-43
2023/02/26 06:12:59;;;;;;;27.75;3.65;;;;;;;;;;5010933;28;20034;-47
2023/02/26 06:15:26;;;;;;;22.98;3.80;;;;;;;;;;5010855;28;20033;-50
2023/02/26 06:17:53;;;;;;;18.27;3.55;;;;;;;;;;5010911;28;20041;-45
2023/02/26 06:20:20;;;;;;;19.42;3.10;;;;;;;;;;5010901;28;20037;-46
2023/02/26 06:22:47;;;;;;;17.85;2.90;;;;;;;;;;5010678;28;20025;-47
2023/02/26 06:25:14;;;;;;;21.63;3.92;;;;;;;;;;5013029;28;20081;-47
2023/02/26 06:27:41;;;;;;;32.65;4.20;;;;;;;;;;5014354;28;20034;-45
2023/02/26 06:30:09;;;;;;;19.60;4.25;;;;;;;;;;5014531;28;20498;-45
2023/02/26 06:32:36;;;;;;;27.92;4.97;;;;;;;;;;5014407;28;20061;-45
2023/02/26 06:35:03;;;;;;;22.55;4.80;;;;;;;;;;5014251;28;20083;-45
2023/02/26 06:37:30;;;;;;;23.73;4.80;;;;;;;;;;5014389;28;20049;-46
2023/02/26 06:39:57;;;;;;;14.07;4.32;;;;;;;;;;5014221;28;20053;-45
2023/02/26 06:42:24;;;;;;;19.98;4.80;;;;;;;;;;5014280;28;20105;-44
2023/02/26 06:44:51;;;;;;;26.55;5.32;;;;;;;;;;5014138;28;20510;-47
2023/02/26 06:47:18;;;;;;;20.25;4.82;;;;;;;;;;5014087;28;20030;-48
2023/02/26 06:49:45;;;;;;;18.60;4.85;;;;;;;;;;5014232;28;20030;-45
2023/02/26 06:52:12;;;;;;;17.33;4.80;;;;;;;;;;5014190;28;20033;-45
2023/02/26 06:54:39;;;;;;;27.50;5.90;;;;;;;;;;5013715;28;20112;-47
2023/02/26 06:57:06;;;;;;;23.58;5.65;;;;;;;;;;5013984;28;20029;-46
2023/02/26 06:59:33;;;;;;;19.50;5.20;;;;;;;;;;5013964;28;20025;-44
2023/02/26 07:02:00;;;;;;;24.42;5.20;;;;;;;;;;5013928;28;20076;-47
2023/02/26 07:04:27;;;;;;;18.02;6.05;;;;;;;;;;5013881;28;20033;-44
2023/02/26 07:06:54;;;;;;;19.15;4.88;;;;;;;;;;5013595;28;20121;-45
2023/02/26 07:09:21;;;;;;;24.98;5.63;;;;;;;;;;5013786;28;20028;-45
2023/02/26 07:11:48;;;;;;;18.90;5.43;;;;;;;;;;5013581;28;20073;-45
2023/02/26 07:14:16;;;;;;;19.75;5.95;;;;;;;;;;5013734;28;20041;-46
2023/02/26 07:16:43;;;;;;;26.75;6.22;;;;;;;;;;5013442;28;20030;-45
2023/02/26 07:19:10;;;;;;;23.70;6.32;;;;;;;;;;5013609;28;20058;-44
2023/02/26 07:21:37;;;;;;;35.70;6.65;;;;;;;;;;5013574;28;20745;-47
2023/02/26 07:24:04;;;;;;;34.28;5.90;;;;;;;;;;5013384;28;20030;-50
2023/02/26 07:26:31;;;;;;;19.70;6.15;;;;;;;;;;5013187;28;20407;-46
2023/02/26 07:28:58;;;;;;;29.45;6.10;;;;;;;;;;5013301;28;20045;-44
2023/02/26 07:31:25;;;;;;;34.65;6.85;;;;;;;;;;5013399;28;20026;-44
2023/02/26 07:33:52;;;;;;;22.83;6.53;;;;;;;;;;5013361;28;20208;-47
2023/02/26 07:36:19;;;;;;;30.70;6.60;;;;;;;;;;5012386;28;20069;-47
2023/02/26 07:38:46;;;;;;;37.25;7.28;;;;;;;;;;4995579;28;20173;-47
2023/02/26 07:41:13;;;;;;;32.22;7.93;;;;;;;;;;5013146;28;20037;-49
2023/02/26 07:43:41;;;;;;;28.17;8.20;;;;;;;;;;5013200;28;20480;-45
2023/02/26 07:46:08;;;;;;;29.08;8.85;;;;;;;;;;5012690;28;20046;-47
2023/02/26 07:48:35;;;;;;;28.58;9.05;;;;;;;;;;5013007;28;20041;-46
2023/02/26 07:51:03;;;;;;;32.70;8.65;;;;;;;;;;5013088;28;20068;-47
2023/02/26 07:53:30;;;;;;;32.58;9.27;;;;;;;;;;5012888;28;20026;-48
2023/02/26 07:55:57;;;;;;;27.75;9.85;;;;;;;;;;5012615;28;20396;-46
2023/02/26 07:58:24;;;;;;;28.75;10.52;;;;;;;;;;5012803;28;20022;-45
2023/02/26 08:00:51;;;;;;;29.92;11.85;;;;;;;;;;5012920;28;20511;-48
2023/02/26 08:03:19;;;;;;;32.05;12.23;;;;;;;;;;5012765;28;20042;-46
2023/02/26 08:05:46;;;;;;;32.22;13.00;;;;;;;;;;5012556;28;20037;-48
2023/02/26 08:08:13;;;;;;;36.00;13.45;;;;;;;;;;5012614;28;20036;-47
2023/02/26 08:10:40;;;;;;;34.67;13.38;;;;;;;;;;5012498;28;20132;-49
2023/02/26 08:13:07;;;;;;;32.22;13.00;;;;;;;;;;5012720;28;20040;-48
2023/02/26 08:15:34;;;;;;;30.55;13.18;;;;;;;;;;5012472;28;20034;-47
2023/02/26 08:18:01;;;;;;;34.08;13.55;;;;;;;;;;5012507;28;20033;-46
2023/02/26 08:20:28;;;;;;;77.03;18.40;;;;;;;;;;5012549;28;20026;-46
2023/02/26 08:22:55;;;;;;;91.88;18.77;;;;;;;;;;5012400;28;20096;-47
2023/02/26 08:25:22;;;;;;;36.67;13.93;;;;;;;;;;5012229;28;20034;-46
2023/02/26 08:27:49;;;;;;;35.20;13.27;;;;;;;;;;5012324;28;20030;-49
2023/02/26 08:30:16;;;;;;;43.00;12.95;;;;;;;;;;5012169;28;20045;-49
2023/02/26 08:32:44;;;;;;;31.33;10.90;;;;;;;;;;5012252;28;20030;-45
2023/02/26 08:35:12;;;;;;;27.23;10.70;;;;;;;;;;5012028;28;20388;-46
2023/02/26 08:37:39;;;;;;;32.10;11.10;;;;;;;;;;5012157;28;20064;-47
2023/02/26 08:40:07;;;;;;;46.47;11.13;;;;;;;;;;5012090;28;20092;-43
2023/02/26 08:42:35;;;;;;;35.63;10.60;;;;;;;;;;5012125;28;20400;-44
2023/02/26 08:45:02;;;;;;;25.73;9.85;;;;;;;;;;5011788;28;20444;-48
2023/02/26 08:47:29;;;;;;;22.67;9.23;;;;;;;;;;5011143;28;20475;-44
2023/02/26 08:49:57;;;;;;;59.78;13.20;;;;;;;;;;5011996;28;20025;-45
2023/02/26 08:52:24;;;;;;;42.22;10.98;;;;;;;;;;5011854;28;20091;-44
2023/02/26 08:54:52;;;;;;;35.80;9.75;;;;;;;;;;5011760;28;20033;-44
2023/02/26 08:57:18;;;;;;;26.17;10.13;;;;;;;;;;5011800;28;20369;-47
2023/02/26 08:59:46;;;;;;;34.55;9.65;;;;;;;;;;5011873;28;20091;-45
2023/02/26 09:02:13;;;;;;;41.38;9.60;;;;;;;;;;5011693;28;20030;-46
2023/02/26 09:04:40;;;;;;;69.28;12.77;;;;;;;;;;5011579;28;20526;-48
2023/02/26 09:07:07;;;;;;;42.38;10.80;;;;;;;;;;5011708;28;20527;-45
2023/02/26 09:09:34;;;;;;;41.00;10.10;;;;;;;;;;5011759;28;20381;-46
2023/02/26 09:12:01;;;;;;;33.83;9.55;;;;;;;;;;5011461;28;20053;-46
2023/02/26 09:14:28;;;;;;;39.50;10.00;;;;;;;;;;5011506;28;20033;-45
2023/02/26 09:16:55;;;;;;;29.77;10.20;;;;;;;;;;5011666;28;20030;-48
2023/02/26 09:19:22;;;;;;;44.15;10.57;;;;;;;;;;5011596;28;20050;-45
2023/02/26 09:21:49;;;;;;;39.47;9.60;;;;;;;;;;5011561;28;20810;-48
2023/02/26 09:24:16;;;;;;;34.75;9.93;;;;;;;;;;5011443;28;20519;-48
2023/02/26 09:26:43;;;;;;;37.28;8.27;;;;;;;;;;5011388;28;20506;-46
2023/02/26 09:29:10;;;;;;;43.13;9.38;;;;;;;;;;5011306;28;20038;-48
2023/02/26 09:31:37;;;;;;;36.20;8.45;;;;;;;;;;5011446;28;20536;-47
2023/02/26 09:34:04;;;;;;;32.72;7.93;;;;;;;;;;5011297;28;20111;-46
2023/02/26 09:36:31;;;;;;;37.10;8.65;;;;;;;;;;5011278;28;20036;-44
2023/02/26 09:38:59;;;;;;;30.40;6.97;;;;;;;;;;5029725;28;20487;-45
2023/02/26 09:41:39;;;;;;;25.95;6.45;;;;;;;;;;5030947;28;20034;-46
2023/02/26 09:44:20;;;;;;;38.38;6.82;;;;;;;;;;5031165;28;20383;-47
2023/02/26 09:47:03;;;;;;;29.25;6.35;;;;;;;;;;5030887;28;20037;-47
2023/02/26 09:49:38;;;;;;;33.80;6.93;;;;;;;;;;5031044;28;20060;-46
2023/02/26 09:52:11;;;;;;;42.58;8.35;;;;;;;;;;5030956;28;20064;-46
2023/02/26 09:54:43;;;;;;;42.63;8.57;;;;;;;;;;5030807;28;20026;-46
2023/02/26 09:57:13;;;;;;;27.48;6.35;;;;;;;;;;5031039;28;20483;-48
2023/02/26 09:59:40;;;;;;;33.10;6.57;;;;;;;;;;5032673;28;20064;-49
2023/02/26 10:02:15;;;;;;;31.70;6.03;;;;;;;;;;5034907;28;20502;-45
2023/02/26 10:05:00;;;;;;;25.30;5.68;;;;;;;;;;5034715;28;20044;-46
2023/02/26 10:07:36;;;;;;;17.88;5.47;;;;;;;;;;5034658;28;20061;-45
2023/02/26 10:10:18;;;;;;;28.80;6.43;;;;;;;;;;5034500;28;20411;-46
2023/02/26 10:12:46;;;;;;;22.65;5.50;;;;;;;;;;5034771;28;20103;-48
2023/02/26 10:15:39;;;;;;;21.00;5.85;;;;;;;;;;5034558;28;20028;-46
2023/02/26 10:18:13;;;;;;;52.85;9.85;;;;;;;;;;5031200;28;20037;-45
2023/02/26 10:20:55;;;;;;;68.63;10.88;;;;;;;;;;5034546;28;20433;-46
2023/02/26 10:23:35;;;;;;;47.90;8.13;;;;;;;;;;5034494;28;20025;-47
2023/02/26 10:26:02;;;;;;;31.75;7.43;;;;;;;;;;5034345;28;20037;-45
2023/02/26 10:28:47;;;;;;;33.03;6.97;;;;;;;;;;5016551;28;20112;-45
2023/02/26 10:31:32;;;;;;;24.88;6.32;;;;;;;;;;5034500;28;20542;-45
2023/02/26 10:34:07;;;;;;;28.27;5.65;;;;;;;;;;5034307;28;20108;-46
2023/02/26 10:36:53;;;;;;;23.02;5.82;;;;;;;;;;5034184;28;20025;-44
2023/02/26 10:39:22;;;;;;;17.90;4.20;;;;;;;;;;5034260;28;20033;-45
2023/02/26 10:41:50;;;;;;;26.17;4.68;;;;;;;;;;5034159;28;20514;-48
2023/02/26 10:44:24;;;;;;;35.28;5.78;;;;;;;;;;5033840;28;20495;-44
2023/02/26 10:46:51;;;;;;;24.55;5.32;;;;;;;;;;5034132;28;20488;-47
2023/02/26 10:49:28;;;;;;;19.92;5.05;;;;;;;;;;5033933;28;20037;-45
2023/02/26 10:51:56;;;;;;;30.98;5.45;;;;;;;;;;5033942;28;20112;-48
2023/02/26 10:54:37;;;;;;;16.63;4.78;;;;;;;;;;5033792;28;20545;-47
2023/02/26 10:57:04;;;;;;;19.58;5.30;;;;;;;;;;5033860;28;20025;-45
2023/02/26 10:59:31;;;;;;;18.33;4.78;;;;;;;;;;5033954;28;20033;-44
2023/02/26 11:01:59;;;;;;;17.10;5.13;;;;;;;;;;5033826;28;20815;-45
2023/02/26 11:04:27;;;;;;;16.17;6.13;;;;;;;;;;5033618;28;20068;-44
2023/02/26 11:06:54;;;;;;;21.58;5.65;;;;;;;;;;5033699;28;20036;-46
2023/02/26 11:09:33;;;;;;;27.05;7.15;;;;;;;;;;5033756;28;20036;-46
2023/02/26 11:12:12;;;;;;;23.13;6.85;;;;;;;;;;5032253;28;20049;-46
2023/02/26 11:14:39;;;;;;;31.25;7.68;;;;;;;;;;5033506;28;20108;-43
2023/02/26 11:17:28;;;;;;;25.38;7.10;;;;;;;;;;5033492;28;20577;-44
2023/02/26 11:20:13;;;;;;;27.10;7.05;;;;;;;;;;5033334;28;20072;-46
2023/02/26 11:22:44;;;;;;;20.10;7.10;;;;;;;;;;5033202;28;20099;-47
2023/02/26 11:25:17;;;;;;;25.73;7.97;;;;;;;;;;5033148;28;20488;-48
2023/02/26 11:27:47;;;;;;;20.67;6.70;;;;;;;;;;5033238;28;20039;-48
2023/02/26 11:30:18;;;;;;;22.27;7.20;;;;;;;;;;5033132;28;20423;-48
2023/02/26 11:32:49;;;;;;;28.47;7.53;;;;;;;;;;5033117;28;20452;-45
2023/02/26 11:35:19;;;;;;;21.05;6.57;;;;;;;;;;5033115;28;20910;-47
2023/02/26 11:37:50;;;;;;;20.25;7.50;;;;;;;;;;5033022;28;20025;-49
2023/02/26 11:40:35;;;;;;;30.52;7.55;;;;;;;;;;5033117;28;20036;-44
2023/02/26 11:43:05;;;;;;;25.08;7.78;;;;;;;;;;5033069;28;20029;-44
2023/02/26 11:45:35;;;;;;;28.92;7.70;;;;;;;;;;5032912;28;20056;-47
2023/02/26 11:48:07;;;;;;;27.88;7.18;;;;;;;;;;5032779;28;20029;-44
2023/02/26 11:50:45;;;;;;;21.80;7.45;;;;;;;;;;5015406;28;20045;-45
2023/02/26 11:53:18;;;;;;;25.13;7.18;;;;;;;;;;5014977;28;20446;-46
2023/02/26 11:55:49;;;;;;;32.70;7.47;;;;;;;;;;5032688;28;20060;-44
2023/02/26 11:58:20;;;;;;;17.50;6.53;;;;;;;;;;5032732;28;20025;-45
2023/02/26 12:00:48;;;;;;;23.90;6.80;;;;;;;;;;5032765;28;20025;-44
2023/02/26 12:03:20;;;;;;;28.60;6.57;;;;;;;;;;5014883;28;20476;-45
2023/02/26 12:05:48;;;;;;;24.48;5.93;;;;;;;;;;5032498;28;20026;-44
2023/02/26 12:08:38;;;;;;;20.30;5.63;;;;;;;;;;5032522;28;20415;-47
2023/02/26 12:11:14;;;;;;;22.55;6.00;;;;;;;;;;5032333;28;20414;-44
2023/02/26 12:13:47;;;;;;;30.58;5.82;;;;;;;;;;5032482;28;20032;-46
2023/02/26 12:16:19;;;;;;;23.63;4.85;;;;;;;;;;5032306;28;20040;-44
2023/02/26 12:18:58;;;;;;;21.67;4.28;;;;;;;;;;5032300;28;20043;-47
2023/02/26 12:21:43;;;;;;;18.88;4.40;;;;;;;;;;5025939;28;20037;-47
2023/02/26 12:24:27;;;;;;;22.10;4.38;;;;;;;;;;5019687;28;20048;-43
2023/02/26 12:26:56;;;;;;;32.47;5.07;;;;;;;;;;5017927;28;20108;-43
2023/02/26 12:29:48;;;;;;;42.15;5.22;;;;;;;;;;5024499;28;20018;-45
2023/02/26 12:32:38;;;;;;;26.42;5.85;;;;;;;;;;5026465;28;20124;-47
2023/02/26 12:35:11;;;;;;;22.40;4.82;;;;;;;;;;5014849;28;20449;-42
2023/02/26 12:38:11;;;;;;;31.33;4.57;;;;;;;;;;4995342;28;20483;-44
2023/02/26 12:40:44;;;;;;;19.10;4.63;;;;;;;;;;4979100;28;20053;-46
2023/02/26 12:43:11;;;;;;;36.78;6.55;;;;;;;;;;5021603;28;20045;-44
2023/02/26 12:45:47;;;;;;;29.83;5.45;;;;;;;;;;5027947;28;20025;-44
2023/02/26 12:48:17;;;;;;;27.25;4.50;;;;;;;;;;5031550;28;20029;-45
2023/02/26 12:50:50;;;;;;;21.58;4.70;;;;;;;;;;5031313;28;20560;-45
2023/02/26 12:53:24;;;;;;;31.73;4.82;;;;;;;;;;5031522;28;20021;-45
2023/02/26 12:55:53;;;;;;;25.60;4.68;;;;;;;;;;5028844;28;20725;-44
2023/02/26 12:58:40;;;;;;;56.95;8.15;;;;;;;;;;5029391;28;20033;-46
2023/02/26 13:01:14;;;;;;;28.40;5.60;;;;;;;;;;5011986;28;20065;-44
2023/02/26 13:03:45;;;;;;;25.77;5.13;;;;;;;;;;5024052;28;20061;-45
2023/02/26 13:06:22;;;;;;;22.15;4.47;;;;;;;;;;5028989;28;20654;-47
2023/02/26 13:09:01;;;;;;;19.05;3.80;;;;;;;;;;5030008;28;20108;-44
2023/02/26 13:11:41;;;;;;;14.85;3.60;;;;;;;;;;5017602;28;20551;-47
2023/02/26 13:14:17;;;;;;;17.48;3.95;;;;;;;;;;5021791;28;20044;-44
2023/02/26 13:16:57;;;;;;;27.40;4.75;;;;;;;;;;5019533;28;20021;-46
2023/02/26 13:19:27;;;;;;;20.60;3.78;;;;;;;;;;5010279;28;20030;-45
2023/02/26 13:21:59;;;;;;;22.45;3.55;;;;;;;;;;5011214;28;20404;-44
2023/02/26 13:24:40;;;;;;;33.28;5.03;;;;;;;;;;5009516;28;20424;-48
2023/02/26 13:27:08;;;;;;;13.82;4.05;;;;;;;;;;5013284;28;20038;-48
2023/02/26 13:29:47;;;;;;;20.95;3.30;;;;;;;;;;5010566;28;20048;-46
2023/02/26 13:32:23;;;;;;;21.83;4.15;;;;;;;;;;4993671;28;20061;-44
2023/02/26 13:34:50;;;;;;;26.33;4.13;;;;;;;;;;5010624;28;20036;-47
2023/02/26 13:37:30;;;;;;;33.22;4.53;;;;;;;;;;5011177;28;20030;-46
2023/02/26 13:40:06;;;;;;;22.45;4.10;;;;;;;;;;5011194;28;20037;-46
2023/02/26 13:42:45;;;;;;;18.85;3.55;;;;;;;;;;5011092;28;20092;-44
2023/02/26 13:45:21;;;;;;;14.60;3.15;;;;;;;;;;5011222;28;20026;-45
2023/02/26 13:48:06;;;;;;;16.38;3.33;;;;;;;;;;5011339;28;20344;-44
2023/02/26 13:50:51;;;;;;;13.15;2.90;;;;;;;;;;5011288;28;20087;-47
2023/02/26 13:53:27;;;;;;;16.65;2.83;;;;;;;;;;5011273;28;20026;-46
2023/02/26 13:55:54;;;;;;;26.83;4.32;;;;;;;;;;5010882;28;20562;-44
2023/02/26 13:58:24;;;;;;;49.28;6.20;;;;;;;;;;5011128;28;20048;-45
2023/02/26 14:01:17;;;;;;;41.67;5.40;;;;;;;;;;5010995;28;20030;-50
2023/02/26 14:03:44;;;;;;;19.27;3.90;;;;;;;;;;4995967;28;20046;-43
2023/02/26 14:06:20;;;;;;;29.42;4.97;;;;;;;;;;5027561;28;20033;-46
2023/02/26 14:08:49;;;;;;;25.50;4.75;;;;;;;;;;5030588;28;20038;-47
2023/02/26 14:11:27;;;;;;;29.52;5.05;;;;;;;;;;5027770;28;20046;-44
2023/02/26 14:14:14;;;;;;;28.73;4.50;;;;;;;;;;5030634;28;20040;-46
2023/02/26 14:16:43;;;;;;;76.78;9.23;;;;;;;;;;5030533;28;20075;-47
2023/02/26 14:19:13;;;;;;;69.30;8.38;;;;;;;;;;5030543;28;20138;-45
2023/02/26 14:21:59;;;;;;;62.45;7.70;;;;;;;;;;5028525;28;20439;-45
2023/02/26 14:24:37;;;;;;;35.75;5.28;;;;;;;;;;5010762;28;20049;-45
2023/02/26 14:27:21;;;;;;;25.85;4.30;;;;;;;;;;5010862;28;20022;-46
2023/02/26 14:29:57;;;;;;;21.70;4.07;;;;;;;;;;5010853;28;20084;-45
2023/02/26 14:32:32;;;;;;;25.02;4.15;;;;;;;;;;5010813;28;20029;-45
2023/02/26 14:35:03;;;;;;;16.63;4.00;;;;;;;;;;5010580;28;20488;-45
2023/02/26 14:37:32;;;;;;;15.27;3.03;;;;;;;;;;4993114;28;20126;-45
2023/02/26 14:40:13;;;;;;;18.38;3.72;;;;;;;;;;5012787;28;20490;-46
2023/02/26 14:42:54;;;;;;;26.05;4.97;;;;;;;;;;5010926;28;20095;-46
2023/02/26 14:45:30;;;;;;;19.05;4.63;;;;;;;;;;5011415;28;20038;-44
2023/02/26 14:47:59;;;;;;;36.13;6.38;;;;;;;;;;5014215;28;20100;-47
2023/02/26 14:50:29;;;;;;;43.03;6.18;;;;;;;;;;5014203;28;20237;-47
2023/02/26 14:52:56;;;;;;;22.17;4.13;;;;;;;;;;5014140;28;20030;-45